sensor_id;sensor_type;location;lat;lon;timestamp;temperature;humidity
20750;DHT22;10535;50.664;4.564;2023-07-29T00:02:08;20.40;99.90
20750;DHT22;10535;50.664;4.564;2023-07-29T00:04:33;20.40;99.90
20750;DHT22;10535;50.664;4.564;2023-07-29T00:06:59;20.20;99.90
20750;DHT22;10535;50.664;4.564;2023-07-29T00:09:24;20.30;99.90
20750;DHT22;10535;50.664;4.564;2023-07-29T00:11:50;20.20;99.90
20750;DHT22;10535;50.664;4.564;2023-07-29T00:14:17;20.10;99.90
20750;DHT22;10535;50.664;4.564;2023-07-29T00:16:43;20.10;99.90
20750;DHT22;10535;50.664;4.564;2023-07-29T00:19:09;20.10;99.90
20750;DHT22;10535;50.664;4.564;2023-07-29T00:21:38;20.00;99.90
20750;DHT22;10535;50.664;4.564;2023-07-29T00:24:04;19.90;99.90
20750;DHT22;10535;50.664;4.564;2023-07-29T00:26:29;19.90;99.90
20750;DHT22;10535;50.664;4.564;2023-07-29T00:28:56;19.80;99.90
20750;DHT22;10535;50.664;4.564;2023-07-29T00:31:21;19.70;99.90
20750;DHT22;10535;50.664;4.564;2023-07-29T00:33:47;19.70;99.90
20750;DHT22;10535;50.664;4.564;2023-07-29T00:36:13;19.70;99.90
20750;DHT22;10535;50.664;4.564;2023-07-29T00:38:38;19.50;99.90
20750;DHT22;10535;50.664;4.564;2023-07-29T00:41:04;19.40;99.90
20750;DHT22;10535;50.664;4.564;2023-07-29T00:43:30;19.50;99.90
20750;DHT22;10535;50.664;4.564;2023-07-29T00:45:56;19.30;99.90
20750;DHT22;10535;50.664;4.564;2023-07-29T00:48:23;19.40;99.90
20750;DHT22;10535;50.664;4.564;2023-07-29T00:50:50;19.30;99.90
20750;DHT22;10535;50.664;4.564;2023-07-29T00:53:16;19.00;99.90
20750;DHT22;10535;50.664;4.564;2023-07-29T00:55:42;18.90;99.90
20750;DHT22;10535;50.664;4.564;2023-07-29T00:58:08;18.90;99.90
20750;DHT22;10535;50.664;4.564;2023-07-29T01:00:33;18.90;99.90
20750;DHT22;10535;50.664;4.564;2023-07-29T01:02:59;19.00;99.90
20750;DHT22;10535;50.664;4.564;2023-07-29T01:05:29;18.90;99.90
20750;DHT22;10535;50.664;4.564;2023-07-29T01:08:09;18.70;99.90
20750;DHT22;10535;50.664;4.564;2023-07-29T01:15:36;18.40;99.90
20750;DHT22;10535;50.664;4.564;2023-07-29T01:18:28;18.40;99.90
20750;DHT22;10535;50.664;4.564;2023-07-29T01:20:59;18.30;99.90
20750;DHT22;10535;50.664;4.564;2023-07-29T01:23:32;18.30;99.90
20750;DHT22;10535;50.664;4.564;2023-07-29T01:25:57;18.40;99.90
20750;DHT22;10535;50.664;4.564;2023-07-29T01:28:24;18.40;99.90
20750;DHT22;10535;50.664;4.564;2023-07-29T01:30:52;18.40;99.90
20750;DHT22;10535;50.664;4.564;2023-07-29T01:33:26;18.40;99.90
20750;DHT22;10535;50.664;4.564;2023-07-29T01:36:01;18.40;99.90
20750;DHT22;10535;50.664;4.564;2023-07-29T01:38:36;18.40;99.90
20750;DHT22;10535;50.664;4.564;2023-07-29T01:41:02;18.30;99.90
20750;DHT22;10535;50.664;4.564;2023-07-29T01:43:29;18.30;99.90
20750;DHT22;10535;50.664;4.564;2023-07-29T01:45:55;18.20;99.90
20750;DHT22;10535;50.664;4.564;2023-07-29T01:48:21;18.20;99.90
20750;DHT22;10535;50.664;4.564;2023-07-29T01:50:47;18.30;99.90
20750;DHT22;10535;50.664;4.564;2023-07-29T01:53:12;18.30;99.90
20750;DHT22;10535;50.664;4.564;2023-07-29T01:55:39;18.40;99.90
20750;DHT22;10535;50.664;4.564;2023-07-29T01:58:04;18.30;99.90
20750;DHT22;10535;50.664;4.564;2023-07-29T02:00:30;18.40;99.90
20750;DHT22;10535;50.664;4.564;2023-07-29T02:02:56;18.30;99.90
20750;DHT22;10535;50.664;4.564;2023-07-29T02:05:21;18.30;99.90
20750;DHT22;10535;50.664;4.564;2023-07-29T02:07:47;18.30;99.90
20750;DHT22;10535;50.664;4.564;2023-07-29T02:10:13;18.20;99.90
20750;DHT22;10535;50.664;4.564;2023-07-29T02:12:39;18.20;99.90
20750;DHT22;10535;50.664;4.564;2023-07-29T02:15:05;18.20;99.90
20750;DHT22;10535;50.664;4.564;2023-07-29T02:17:31;18.20;99.90
20750;DHT22;10535;50.664;4.564;2023-07-29T02:19:56;18.40;99.90
20750;DHT22;10535;50.664;4.564;2023-07-29T02:22:22;18.20;99.90
20750;DHT22;10535;50.664;4.564;2023-07-29T02:24:48;18.20;99.90
20750;DHT22;10535;50.664;4.564;2023-07-29T02:27:13;18.20;99.90
20750;DHT22;10535;50.664;4.564;2023-07-29T02:29:39;18.10;99.90
20750;DHT22;10535;50.664;4.564;2023-07-29T02:32:05;18.20;99.90
20750;DHT22;10535;50.664;4.564;2023-07-29T02:34:31;18.10;99.90
20750;DHT22;10535;50.664;4.564;2023-07-29T02:36:56;18.20;99.90
20750;DHT22;10535;50.664;4.564;2023-07-29T02:39:22;18.10;99.90
20750;DHT22;10535;50.664;4.564;2023-07-29T02:41:48;18.00;99.90
20750;DHT22;10535;50.664;4.564;2023-07-29T02:44:15;17.90;99.90
20750;DHT22;10535;50.664;4.564;2023-07-29T02:46:41;17.90;99.90
20750;DHT22;10535;50.664;4.564;2023-07-29T02:49:06;17.90;99.90
20750;DHT22;10535;50.664;4.564;2023-07-29T02:51:32;17.80;99.90
20750;DHT22;10535;50.664;4.564;2023-07-29T02:53:58;17.90;99.90
20750;DHT22;10535;50.664;4.564;2023-07-29T02:56:24;17.90;99.90
20750;DHT22;10535;50.664;4.564;2023-07-29T02:58:49;17.90;99.90
20750;DHT22;10535;50.664;4.564;2023-07-29T03:01:17;17.90;99.90
20750;DHT22;10535;50.664;4.564;2023-07-29T03:03:42;17.80;99.90
20750;DHT22;10535;50.664;4.564;2023-07-29T03:06:10;17.90;99.90
20750;DHT22;10535;50.664;4.564;2023-07-29T03:08:36;17.80;99.90
20750;DHT22;10535;50.664;4.564;2023-07-29T03:11:11;17.80;99.90
20750;DHT22;10535;50.664;4.564;2023-07-29T03:13:37;17.80;99.90
20750;DHT22;10535;50.664;4.564;2023-07-29T03:16:07;17.80;99.90
20750;DHT22;10535;50.664;4.564;2023-07-29T03:18:33;17.70;99.90
20750;DHT22;10535;50.664;4.564;2023-07-29T03:20:58;17.70;99.90
20750;DHT22;10535;50.664;4.564;2023-07-29T03:23:24;17.70;99.90
20750;DHT22;10535;50.664;4.564;2023-07-29T03:25:50;17.70;99.90
20750;DHT22;10535;50.664;4.564;2023-07-29T03:28:23;17.70;99.90
20750;DHT22;10535;50.664;4.564;2023-07-29T03:30:48;17.80;99.90
20750;DHT22;10535;50.664;4.564;2023-07-29T03:33:14;17.70;99.90
20750;DHT22;10535;50.664;4.564;2023-07-29T03:35:39;17.80;99.90
20750;DHT22;10535;50.664;4.564;2023-07-29T03:38:05;17.80;99.90
20750;DHT22;10535;50.664;4.564;2023-07-29T03:40:31;17.80;99.90
20750;DHT22;10535;50.664;4.564;2023-07-29T03:42:56;17.80;99.90
20750;DHT22;10535;50.664;4.564;2023-07-29T03:45:22;17.70;99.90
20750;DHT22;10535;50.664;4.564;2023-07-29T03:47:47;17.70;99.90
20750;DHT22;10535;50.664;4.564;2023-07-29T03:50:13;17.60;99.90
20750;DHT22;10535;50.664;4.564;2023-07-29T03:52:39;17.60;99.90
20750;DHT22;10535;50.664;4.564;2023-07-29T03:55:04;17.70;99.90
20750;DHT22;10535;50.664;4.564;2023-07-29T03:57:30;17.70;99.90
20750;DHT22;10535;50.664;4.564;2023-07-29T03:59:56;17.80;99.90
20750;DHT22;10535;50.664;4.564;2023-07-29T04:02:22;17.90;99.90
20750;DHT22;10535;50.664;4.564;2023-07-29T04:04:47;18.00;99.90
20750;DHT22;10535;50.664;4.564;2023-07-29T04:07:13;18.00;99.90
20750;DHT22;10535;50.664;4.564;2023-07-29T04:09:39;18.00;99.90
20750;DHT22;10535;50.664;4.564;2023-07-29T04:12:05;18.00;99.90
20750;DHT22;10535;50.664;4.564;2023-07-29T04:14:31;17.90;99.90
20750;DHT22;10535;50.664;4.564;2023-07-29T04:16:57;17.90;99.90
20750;DHT22;10535;50.664;4.564;2023-07-29T04:19:22;17.80;99.90
20750;DHT22;10535;50.664;4.564;2023-07-29T04:21:48;17.80;99.90
20750;DHT22;10535;50.664;4.564;2023-07-29T04:24:16;17.90;99.90
20750;DHT22;10535;50.664;4.564;2023-07-29T04:26:41;17.90;99.90
20750;DHT22;10535;50.664;4.564;2023-07-29T04:29:07;17.90;99.90
20750;DHT22;10535;50.664;4.564;2023-07-29T04:31:33;17.80;99.90
20750;DHT22;10535;50.664;4.564;2023-07-29T04:33:58;17.80;99.90
20750;DHT22;10535;50.664;4.564;2023-07-29T04:36:24;17.80;99.90
20750;DHT22;10535;50.664;4.564;2023-07-29T04:38:49;17.80;99.90
20750;DHT22;10535;50.664;4.564;2023-07-29T04:41:15;17.80;99.90
20750;DHT22;10535;50.664;4.564;2023-07-29T04:43:40;17.90;99.90
20750;DHT22;10535;50.664;4.564;2023-07-29T04:46:07;17.80;99.90
20750;DHT22;10535;50.664;4.564;2023-07-29T04:48:34;17.70;99.90
20750;DHT22;10535;50.664;4.564;2023-07-29T04:50:59;17.80;99.90
20750;DHT22;10535;50.664;4.564;2023-07-29T04:53:25;17.90;99.90
20750;DHT22;10535;50.664;4.564;2023-07-29T04:55:50;17.90;99.90
20750;DHT22;10535;50.664;4.564;2023-07-29T04:58:16;17.90;99.90
20750;DHT22;10535;50.664;4.564;2023-07-29T05:00:42;17.80;99.90
20750;DHT22;10535;50.664;4.564;2023-07-29T05:03:07;17.80;99.90
20750;DHT22;10535;50.664;4.564;2023-07-29T05:05:33;17.80;99.90
20750;DHT22;10535;50.664;4.564;2023-07-29T05:07:59;17.90;99.90
20750;DHT22;10535;50.664;4.564;2023-07-29T05:10:24;17.90;99.90
20750;DHT22;10535;50.664;4.564;2023-07-29T05:12:50;17.90;99.90
20750;DHT22;10535;50.664;4.564;2023-07-29T05:15:16;17.80;99.90
20750;DHT22;10535;50.664;4.564;2023-07-29T05:17:41;17.80;99.90
20750;DHT22;10535;50.664;4.564;2023-07-29T05:20:07;17.70;99.90
20750;DHT22;10535;50.664;4.564;2023-07-29T05:22:33;17.70;99.90
20750;DHT22;10535;50.664;4.564;2023-07-29T05:24:59;17.70;99.90
20750;DHT22;10535;50.664;4.564;2023-07-29T05:27:24;17.80;99.90
20750;DHT22;10535;50.664;4.564;2023-07-29T05:29:50;17.80;99.90
20750;DHT22;10535;50.664;4.564;2023-07-29T05:32:16;18.20;99.90
20750;DHT22;10535;50.664;4.564;2023-07-29T05:34:41;18.70;99.90
20750;DHT22;10535;50.664;4.564;2023-07-29T05:37:07;19.40;99.90
20750;DHT22;10535;50.664;4.564;2023-07-29T05:39:33;20.10;99.90
20750;DHT22;10535;50.664;4.564;2023-07-29T05:41:59;20.40;99.90
20750;DHT22;10535;50.664;4.564;2023-07-29T05:44:28;20.70;99.90
20750;DHT22;10535;50.664;4.564;2023-07-29T05:46:54;20.80;99.90
20750;DHT22;10535;50.664;4.564;2023-07-29T05:49:20;20.90;99.90
20750;DHT22;10535;50.664;4.564;2023-07-29T05:51:46;20.80;99.90
20750;DHT22;10535;50.664;4.564;2023-07-29T05:54:11;20.70;99.90
20750;DHT22;10535;50.664;4.564;2023-07-29T05:56:37;20.70;99.90
20750;DHT22;10535;50.664;4.564;2023-07-29T05:59:03;20.70;99.90
20750;DHT22;10535;50.664;4.564;2023-07-29T06:01:28;20.70;99.90
20750;DHT22;10535;50.664;4.564;2023-07-29T06:03:54;20.60;99.90
20750;DHT22;10535;50.664;4.564;2023-07-29T06:06:20;20.60;99.90
20750;DHT22;10535;50.664;4.564;2023-07-29T06:08:45;20.70;99.90
20750;DHT22;10535;50.664;4.564;2023-07-29T06:11:11;20.60;99.90
20750;DHT22;10535;50.664;4.564;2023-07-29T06:13:37;20.50;99.90
20750;DHT22;10535;50.664;4.564;2023-07-29T06:16:03;20.40;99.90
20750;DHT22;10535;50.664;4.564;2023-07-29T06:18:29;20.60;99.90
20750;DHT22;10535;50.664;4.564;2023-07-29T06:20:55;20.60;99.90
20750;DHT22;10535;50.664;4.564;2023-07-29T06:23:20;20.70;99.90
20750;DHT22;10535;50.664;4.564;2023-07-29T06:25:46;20.90;99.90
20750;DHT22;10535;50.664;4.564;2023-07-29T06:28:12;21.10;99.90
20750;DHT22;10535;50.664;4.564;2023-07-29T06:30:38;21.40;99.90
20750;DHT22;10535;50.664;4.564;2023-07-29T06:33:03;21.70;99.90
20750;DHT22;10535;50.664;4.564;2023-07-29T06:35:29;22.00;99.90
20750;DHT22;10535;50.664;4.564;2023-07-29T06:37:55;22.30;99.90
20750;DHT22;10535;50.664;4.564;2023-07-29T06:40:20;22.50;99.90
20750;DHT22;10535;50.664;4.564;2023-07-29T06:42:46;22.70;99.90
20750;DHT22;10535;50.664;4.564;2023-07-29T06:45:12;22.90;99.90
20750;DHT22;10535;50.664;4.564;2023-07-29T06:47:38;23.00;99.90
20750;DHT22;10535;50.664;4.564;2023-07-29T06:50:03;22.90;99.90
20750;DHT22;10535;50.664;4.564;2023-07-29T06:52:29;23.10;99.90
20750;DHT22;10535;50.664;4.564;2023-07-29T06:54:55;22.90;99.90
20750;DHT22;10535;50.664;4.564;2023-07-29T06:57:21;22.90;99.90
20750;DHT22;10535;50.664;4.564;2023-07-29T06:59:46;22.70;99.90
20750;DHT22;10535;50.664;4.564;2023-07-29T07:02:12;22.60;99.90
20750;DHT22;10535;50.664;4.564;2023-07-29T07:04:38;22.50;99.90
20750;DHT22;10535;50.664;4.564;2023-07-29T07:07:03;22.40;99.90
20750;DHT22;10535;50.664;4.564;2023-07-29T07:09:29;22.20;99.90
20750;DHT22;10535;50.664;4.564;2023-07-29T07:11:55;22.30;99.90
20750;DHT22;10535;50.664;4.564;2023-07-29T07:14:20;22.30;99.90
20750;DHT22;10535;50.664;4.564;2023-07-29T07:16:46;22.50;99.90
20750;DHT22;10535;50.664;4.564;2023-07-29T07:19:11;22.80;99.90
20750;DHT22;10535;50.664;4.564;2023-07-29T07:21:37;22.80;99.90
20750;DHT22;10535;50.664;4.564;2023-07-29T07:24:03;22.90;99.90
20750;DHT22;10535;50.664;4.564;2023-07-29T07:26:28;23.30;99.90
20750;DHT22;10535;50.664;4.564;2023-07-29T07:28:54;23.60;99.90
20750;DHT22;10535;50.664;4.564;2023-07-29T07:31:20;23.90;99.90
20750;DHT22;10535;50.664;4.564;2023-07-29T07:33:45;23.80;99.90
20750;DHT22;10535;50.664;4.564;2023-07-29T07:36:11;24.20;99.90
20750;DHT22;10535;50.664;4.564;2023-07-29T07:38:36;24.20;99.90
20750;DHT22;10535;50.664;4.564;2023-07-29T07:41:02;24.20;99.90
20750;DHT22;10535;50.664;4.564;2023-07-29T07:43:28;24.10;99.90
20750;DHT22;10535;50.664;4.564;2023-07-29T07:46:01;23.80;99.90
20750;DHT22;10535;50.664;4.564;2023-07-29T07:48:27;23.60;99.90
20750;DHT22;10535;50.664;4.564;2023-07-29T07:50:53;23.50;99.90
20750;DHT22;10535;50.664;4.564;2023-07-29T07:53:19;23.50;99.90
20750;DHT22;10535;50.664;4.564;2023-07-29T07:55:48;23.20;99.90
20750;DHT22;10535;50.664;4.564;2023-07-29T07:58:13;23.40;99.90
20750;DHT22;10535;50.664;4.564;2023-07-29T08:00:39;23.30;99.90
20750;DHT22;10535;50.664;4.564;2023-07-29T08:03:04;23.40;99.90
20750;DHT22;10535;50.664;4.564;2023-07-29T08:05:30;23.60;99.90
20750;DHT22;10535;50.664;4.564;2023-07-29T08:07:56;23.80;99.90
20750;DHT22;10535;50.664;4.564;2023-07-29T08:10:22;23.60;99.90
20750;DHT22;10535;50.664;4.564;2023-07-29T08:12:48;23.90;99.90
20750;DHT22;10535;50.664;4.564;2023-07-29T08:15:14;24.30;99.90
20750;DHT22;10535;50.664;4.564;2023-07-29T08:17:39;24.50;99.90
20750;DHT22;10535;50.664;4.564;2023-07-29T08:20:05;24.70;99.90
20750;DHT22;10535;50.664;4.564;2023-07-29T08:22:32;24.80;99.90
20750;DHT22;10535;50.664;4.564;2023-07-29T08:24:57;24.70;99.90
20750;DHT22;10535;50.664;4.564;2023-07-29T08:27:23;24.80;99.90
20750;DHT22;10535;50.664;4.564;2023-07-29T08:29:49;24.50;99.90
20750;DHT22;10535;50.664;4.564;2023-07-29T08:32:14;24.30;99.90
20750;DHT22;10535;50.664;4.564;2023-07-29T08:34:40;24.50;99.90
20750;DHT22;10535;50.664;4.564;2023-07-29T08:37:06;24.80;99.90
20750;DHT22;10535;50.664;4.564;2023-07-29T08:39:31;24.90;99.90
20750;DHT22;10535;50.664;4.564;2023-07-29T08:42:07;25.00;99.90
20750;DHT22;10535;50.664;4.564;2023-07-29T08:44:44;25.30;99.90
20750;DHT22;10535;50.664;4.564;2023-07-29T08:47:11;25.20;99.90
20750;DHT22;10535;50.664;4.564;2023-07-29T08:49:39;25.30;99.90
20750;DHT22;10535;50.664;4.564;2023-07-29T08:52:05;25.70;99.90
20750;DHT22;10535;50.664;4.564;2023-07-29T08:54:32;26.00;99.90
20750;DHT22;10535;50.664;4.564;2023-07-29T08:56:58;26.20;99.90
20750;DHT22;10535;50.664;4.564;2023-07-29T08:59:25;25.90;99.90
20750;DHT22;10535;50.664;4.564;2023-07-29T09:01:51;25.80;99.90
20750;DHT22;10535;50.664;4.564;2023-07-29T09:04:20;25.30;99.90
20750;DHT22;10535;50.664;4.564;2023-07-29T09:06:47;25.20;99.90
20750;DHT22;10535;50.664;4.564;2023-07-29T09:09:15;25.30;99.90
20750;DHT22;10535;50.664;4.564;2023-07-29T09:11:41;25.40;99.90
20750;DHT22;10535;50.664;4.564;2023-07-29T09:14:06;25.40;99.90
20750;DHT22;10535;50.664;4.564;2023-07-29T09:16:33;25.40;99.90
20750;DHT22;10535;50.664;4.564;2023-07-29T09:19:02;25.30;99.90
20750;DHT22;10535;50.664;4.564;2023-07-29T09:21:31;25.60;99.90
20750;DHT22;10535;50.664;4.564;2023-07-29T09:24:02;25.40;99.90
20750;DHT22;10535;50.664;4.564;2023-07-29T09:26:28;25.50;99.90
20750;DHT22;10535;50.664;4.564;2023-07-29T09:28:56;25.50;99.90
20750;DHT22;10535;50.664;4.564;2023-07-29T09:31:24;25.50;99.90
20750;DHT22;10535;50.664;4.564;2023-07-29T09:33:58;25.50;99.90
20750;DHT22;10535;50.664;4.564;2023-07-29T09:36:25;25.80;99.90
20750;DHT22;10535;50.664;4.564;2023-07-29T09:38:55;26.20;99.90
20750;DHT22;10535;50.664;4.564;2023-07-29T09:41:28;26.30;99.90
20750;DHT22;10535;50.664;4.564;2023-07-29T09:44:01;26.30;99.90
20750;DHT22;10535;50.664;4.564;2023-07-29T09:46:35;25.90;99.90
20750;DHT22;10535;50.664;4.564;2023-07-29T09:49:05;26.40;99.90
20750;DHT22;10535;50.664;4.564;2023-07-29T09:51:31;26.10;99.90
20750;DHT22;10535;50.664;4.564;2023-07-29T09:53:57;26.00;99.90
20750;DHT22;10535;50.664;4.564;2023-07-29T09:56:25;26.00;99.90
20750;DHT22;10535;50.664;4.564;2023-07-29T09:58:52;25.90;99.90
20750;DHT22;10535;50.664;4.564;2023-07-29T10:01:18;25.80;99.90
20750;DHT22;10535;50.664;4.564;2023-07-29T10:03:44;26.20;99.90
20750;DHT22;10535;50.664;4.564;2023-07-29T10:06:10;26.60;99.90
20750;DHT22;10535;50.664;4.564;2023-07-29T10:08:36;26.50;99.90
20750;DHT22;10535;50.664;4.564;2023-07-29T10:11:09;26.70;99.90
20750;DHT22;10535;50.664;4.564;2023-07-29T10:13:35;26.50;99.90
20750;DHT22;10535;50.664;4.564;2023-07-29T10:16:02;26.40;99.90
20750;DHT22;10535;50.664;4.564;2023-07-29T10:18:29;26.40;99.90
20750;DHT22;10535;50.664;4.564;2023-07-29T10:20:57;26.60;99.90
20750;DHT22;10535;50.664;4.564;2023-07-29T10:23:24;26.90;99.90
20750;DHT22;10535;50.664;4.564;2023-07-29T10:26:01;26.70;99.90
20750;DHT22;10535;50.664;4.564;2023-07-29T10:28:30;26.90;99.90
20750;DHT22;10535;50.664;4.564;2023-07-29T10:30:57;26.80;99.90
20750;DHT22;10535;50.664;4.564;2023-07-29T10:33:23;26.80;99.90
20750;DHT22;10535;50.664;4.564;2023-07-29T10:35:49;26.30;99.90
20750;DHT22;10535;50.664;4.564;2023-07-29T10:38:16;26.60;99.90
20750;DHT22;10535;50.664;4.564;2023-07-29T10:40:54;27.00;99.90
20750;DHT22;10535;50.664;4.564;2023-07-29T10:43:26;27.30;99.90
20750;DHT22;10535;50.664;4.564;2023-07-29T10:45:52;27.30;99.90
20750;DHT22;10535;50.664;4.564;2023-07-29T10:51:29;27.60;99.90
20750;DHT22;10535;50.664;4.564;2023-07-29T10:54:11;28.00;99.90
20750;DHT22;10535;50.664;4.564;2023-07-29T10:56:41;28.10;99.90
20750;DHT22;10535;50.664;4.564;2023-07-29T11:01:43;27.80;99.90
20750;DHT22;10535;50.664;4.564;2023-07-29T11:12:52;26.20;99.90
20750;DHT22;10535;50.664;4.564;2023-07-29T11:15:19;26.10;99.90
20750;DHT22;10535;50.664;4.564;2023-07-29T11:18:05;26.00;99.90
20750;DHT22;10535;50.664;4.564;2023-07-29T11:20:33;25.50;99.90
20750;DHT22;10535;50.664;4.564;2023-07-29T11:23:01;25.10;99.90
20750;DHT22;10535;50.664;4.564;2023-07-29T11:25:29;24.40;99.90
20750;DHT22;10535;50.664;4.564;2023-07-29T11:27:56;23.90;99.90
20750;DHT22;10535;50.664;4.564;2023-07-29T11:30:22;23.30;99.90
20750;DHT22;10535;50.664;4.564;2023-07-29T11:32:49;23.00;99.90
20750;DHT22;10535;50.664;4.564;2023-07-29T11:35:16;23.00;99.90
20750;DHT22;10535;50.664;4.564;2023-07-29T11:37:45;23.50;99.90
20750;DHT22;10535;50.664;4.564;2023-07-29T11:40:14;24.20;99.90
20750;DHT22;10535;50.664;4.564;2023-07-29T11:42:40;24.80;99.90
20750;DHT22;10535;50.664;4.564;2023-07-29T11:45:07;25.20;99.90
20750;DHT22;10535;50.664;4.564;2023-07-29T11:47:33;25.20;99.90
20750;DHT22;10535;50.664;4.564;2023-07-29T11:50:05;24.80;99.90
20750;DHT22;10535;50.664;4.564;2023-07-29T11:52:32;24.70;99.90
20750;DHT22;10535;50.664;4.564;2023-07-29T11:54:58;24.90;99.90
20750;DHT22;10535;50.664;4.564;2023-07-29T11:57:24;24.90;99.90
20750;DHT22;10535;50.664;4.564;2023-07-29T11:59:50;24.70;99.90
20750;DHT22;10535;50.664;4.564;2023-07-29T12:02:17;24.50;99.90
20750;DHT22;10535;50.664;4.564;2023-07-29T12:04:46;24.10;99.90
20750;DHT22;10535;50.664;4.564;2023-07-29T12:07:13;24.10;99.90
20750;DHT22;10535;50.664;4.564;2023-07-29T12:09:41;24.40;99.90
20750;DHT22;10535;50.664;4.564;2023-07-29T12:12:07;24.60;99.90
20750;DHT22;10535;50.664;4.564;2023-07-29T12:14:34;24.70;99.90
20750;DHT22;10535;50.664;4.564;2023-07-29T12:17:01;24.60;99.90
20750;DHT22;10535;50.664;4.564;2023-07-29T12:19:38;24.50;99.90
20750;DHT22;10535;50.664;4.564;2023-07-29T12:22:05;24.50;99.90
20750;DHT22;10535;50.664;4.564;2023-07-29T12:24:33;24.70;99.90
20750;DHT22;10535;50.664;4.564;2023-07-29T12:26:59;25.10;99.90
20750;DHT22;10535;50.664;4.564;2023-07-29T12:29:25;25.80;99.90
20750;DHT22;10535;50.664;4.564;2023-07-29T12:32:01;25.70;99.90
20750;DHT22;10535;50.664;4.564;2023-07-29T12:34:28;25.60;99.90
20750;DHT22;10535;50.664;4.564;2023-07-29T12:36:55;25.70;99.90
20750;DHT22;10535;50.664;4.564;2023-07-29T12:39:25;26.10;99.90
20750;DHT22;10535;50.664;4.564;2023-07-29T12:41:53;26.50;99.90
20750;DHT22;10535;50.664;4.564;2023-07-29T12:44:20;26.70;99.90
20750;DHT22;10535;50.664;4.564;2023-07-29T12:46:45;26.80;99.90
20750;DHT22;10535;50.664;4.564;2023-07-29T12:49:11;26.70;99.90
20750;DHT22;10535;50.664;4.564;2023-07-29T12:51:37;26.80;99.90
20750;DHT22;10535;50.664;4.564;2023-07-29T12:54:04;26.50;99.90
20750;DHT22;10535;50.664;4.564;2023-07-29T12:56:30;25.90;99.90
20750;DHT22;10535;50.664;4.564;2023-07-29T12:58:57;25.10;99.90
20750;DHT22;10535;50.664;4.564;2023-07-29T13:01:24;25.00;99.90
20750;DHT22;10535;50.664;4.564;2023-07-29T13:03:50;24.80;99.90
20750;DHT22;10535;50.664;4.564;2023-07-29T13:06:15;24.90;99.90
20750;DHT22;10535;50.664;4.564;2023-07-29T13:08:42;24.50;99.90
20750;DHT22;10535;50.664;4.564;2023-07-29T13:11:08;24.40;99.90
20750;DHT22;10535;50.664;4.564;2023-07-29T13:13:33;24.50;99.90
20750;DHT22;10535;50.664;4.564;2023-07-29T13:15:59;24.60;99.90
20750;DHT22;10535;50.664;4.564;2023-07-29T13:18:25;24.50;99.90
20750;DHT22;10535;50.664;4.564;2023-07-29T13:20:50;24.60;99.90
20750;DHT22;10535;50.664;4.564;2023-07-29T13:23:16;24.50;99.90
20750;DHT22;10535;50.664;4.564;2023-07-29T13:25:42;24.70;99.90
20750;DHT22;10535;50.664;4.564;2023-07-29T13:28:11;24.30;99.90
20750;DHT22;10535;50.664;4.564;2023-07-29T13:30:41;23.90;99.90
20750;DHT22;10535;50.664;4.564;2023-07-29T13:33:07;23.70;99.90
20750;DHT22;10535;50.664;4.564;2023-07-29T13:35:33;23.40;99.90
20750;DHT22;10535;50.664;4.564;2023-07-29T13:38:00;23.90;99.90
20750;DHT22;10535;50.664;4.564;2023-07-29T13:40:25;24.50;99.90
20750;DHT22;10535;50.664;4.564;2023-07-29T13:42:51;24.50;99.90
20750;DHT22;10535;50.664;4.564;2023-07-29T13:45:18;24.80;99.90
20750;DHT22;10535;50.664;4.564;2023-07-29T13:47:43;24.80;99.90
20750;DHT22;10535;50.664;4.564;2023-07-29T13:50:09;25.20;99.90
20750;DHT22;10535;50.664;4.564;2023-07-29T13:52:36;25.30;99.90
20750;DHT22;10535;50.664;4.564;2023-07-29T13:55:02;25.50;99.90
20750;DHT22;10535;50.664;4.564;2023-07-29T13:57:28;25.50;99.90
20750;DHT22;10535;50.664;4.564;2023-07-29T13:59:54;25.70;99.90
20750;DHT22;10535;50.664;4.564;2023-07-29T14:02:19;25.60;99.90
20750;DHT22;10535;50.664;4.564;2023-07-29T14:04:45;25.40;99.90
20750;DHT22;10535;50.664;4.564;2023-07-29T14:07:10;25.50;99.90
20750;DHT22;10535;50.664;4.564;2023-07-29T14:09:36;25.50;99.90
20750;DHT22;10535;50.664;4.564;2023-07-29T14:12:04;25.40;99.90
20750;DHT22;10535;50.664;4.564;2023-07-29T14:14:30;25.30;99.90
20750;DHT22;10535;50.664;4.564;2023-07-29T14:16:55;25.30;99.90
20750;DHT22;10535;50.664;4.564;2023-07-29T14:19:21;25.30;99.90
20750;DHT22;10535;50.664;4.564;2023-07-29T14:21:47;25.30;99.90
20750;DHT22;10535;50.664;4.564;2023-07-29T14:24:12;25.40;99.90
20750;DHT22;10535;50.664;4.564;2023-07-29T14:26:38;25.50;99.90
20750;DHT22;10535;50.664;4.564;2023-07-29T14:29:03;25.50;99.90
20750;DHT22;10535;50.664;4.564;2023-07-29T14:31:29;25.70;99.90
20750;DHT22;10535;50.664;4.564;2023-07-29T14:33:55;25.60;99.90
20750;DHT22;10535;50.664;4.564;2023-07-29T14:36:21;25.60;99.90
20750;DHT22;10535;50.664;4.564;2023-07-29T14:38:46;25.20;99.90
20750;DHT22;10535;50.664;4.564;2023-07-29T14:41:12;25.10;99.90
20750;DHT22;10535;50.664;4.564;2023-07-29T14:43:38;25.20;99.90
20750;DHT22;10535;50.664;4.564;2023-07-29T14:46:04;25.40;99.90
20750;DHT22;10535;50.664;4.564;2023-07-29T14:48:30;25.50;99.90
20750;DHT22;10535;50.664;4.564;2023-07-29T14:50:56;25.50;99.90
20750;DHT22;10535;50.664;4.564;2023-07-29T14:53:21;25.70;99.90
20750;DHT22;10535;50.664;4.564;2023-07-29T14:55:47;25.50;99.90
20750;DHT22;10535;50.664;4.564;2023-07-29T14:58:13;25.20;99.90
20750;DHT22;10535;50.664;4.564;2023-07-29T15:00:41;25.30;99.90
20750;DHT22;10535;50.664;4.564;2023-07-29T15:03:07;25.20;99.90
20750;DHT22;10535;50.664;4.564;2023-07-29T15:05:33;25.20;99.90
20750;DHT22;10535;50.664;4.564;2023-07-29T15:08:02;25.70;99.90
20750;DHT22;10535;50.664;4.564;2023-07-29T15:10:36;26.00;99.90
20750;DHT22;10535;50.664;4.564;2023-07-29T15:13:02;25.90;99.90
20750;DHT22;10535;50.664;4.564;2023-07-29T15:15:28;25.40;99.90
20750;DHT22;10535;50.664;4.564;2023-07-29T15:17:53;25.10;99.90
20750;DHT22;10535;50.664;4.564;2023-07-29T15:20:19;24.70;99.90
20750;DHT22;10535;50.664;4.564;2023-07-29T15:22:45;24.40;99.90
20750;DHT22;10535;50.664;4.564;2023-07-29T15:25:10;24.40;99.90
20750;DHT22;10535;50.664;4.564;2023-07-29T15:27:37;24.40;99.90
20750;DHT22;10535;50.664;4.564;2023-07-29T15:30:05;24.50;99.90
20750;DHT22;10535;50.664;4.564;2023-07-29T15:32:31;24.40;99.90
20750;DHT22;10535;50.664;4.564;2023-07-29T15:34:56;24.80;99.90
20750;DHT22;10535;50.664;4.564;2023-07-29T15:37:25;24.90;99.90
20750;DHT22;10535;50.664;4.564;2023-07-29T15:39:51;24.90;99.90
20750;DHT22;10535;50.664;4.564;2023-07-29T15:42:17;24.60;99.90
20750;DHT22;10535;50.664;4.564;2023-07-29T15:44:42;24.40;99.90
20750;DHT22;10535;50.664;4.564;2023-07-29T15:47:08;24.30;99.90